sensor_id;sensor_type;location;lat;lon;timestamp;pressure;altitude;pressure_sealevel;temperature;humidity
18527;BME280;9393;42.158;24.748;2023-04-30T00:01:43;99262.16;;;16.90;58.43
18527;BME280;9393;42.158;24.748;2023-04-30T00:04:47;99269.53;;;17.01;57.97
18527;BME280;9393;42.158;24.748;2023-04-30T00:07:52;99267.16;;;17.06;58.36
18527;BME280;9393;42.158;24.748;2023-04-30T00:10:56;99261.13;;;17.12;58.60
18527;BME280;9393;42.158;24.748;2023-04-30T00:13:59;99260.00;;;17.00;59.04
18527;BME280;9393;42.158;24.748;2023-04-30T00:17:03;99260.25;;;17.05;58.87
18527;BME280;9393;42.158;24.748;2023-04-30T00:20:07;99256.00;;;16.83;60.37
18527;BME280;9393;42.158;24.748;2023-04-30T00:23:13;99261.03;;;16.99;59.40
18527;BME280;9393;42.158;24.748;2023-04-30T00:26:16;99266.19;;;17.14;58.91
18527;BME280;9393;42.158;24.748;2023-04-30T00:29:22;99267.59;;;17.10;59.26
18527;BME280;9393;42.158;24.748;2023-04-30T00:32:26;99273.06;;;17.08;59.37
18527;BME280;9393;42.158;24.748;2023-04-30T00:35:30;99268.22;;;17.12;59.10
18527;BME280;9393;42.158;24.748;2023-04-30T00:38:35;99269.97;;;17.05;59.08
18527;BME280;9393;42.158;24.748;2023-04-30T00:41:40;99269.16;;;17.04;59.64
18527;BME280;9393;42.158;24.748;2023-04-30T00:44:44;99267.91;;;17.00;59.99
18527;BME280;9393;42.158;24.748;2023-04-30T00:47:48;99267.78;;;17.08;59.08
18527;BME280;9393;42.158;24.748;2023-04-30T00:50:52;99260.09;;;17.13;59.43
18527;BME280;9393;42.158;24.748;2023-04-30T00:54:00;99263.88;;;17.26;58.46
18527;BME280;9393;42.158;24.748;2023-04-30T00:57:04;99258.41;;;17.27;58.94
18527;BME280;9393;42.158;24.748;2023-04-30T01:00:11;99259.56;;;17.46;57.85
18527;BME280;9393;42.158;24.748;2023-04-30T01:03:15;99254.84;;;17.41;57.60
18527;BME280;9393;42.158;24.748;2023-04-30T01:06:19;99252.63;;;17.17;58.45
18527;BME280;9393;42.158;24.748;2023-04-30T01:09:24;99255.38;;;17.02;59.04
18527;BME280;9393;42.158;24.748;2023-04-30T01:12:34;99262.50;;;17.08;58.16
18527;BME280;9393;42.158;24.748;2023-04-30T01:15:43;99250.34;;;17.07;58.09
18527;BME280;9393;42.158;24.748;2023-04-30T01:18:53;99252.34;;;17.05;57.39
18527;BME280;9393;42.158;24.748;2023-04-30T01:22:03;99252.03;;;16.73;57.41
18527;BME280;9393;42.158;24.748;2023-04-30T01:25:24;99250.28;;;16.80;56.87
18527;BME280;9393;42.158;24.748;2023-04-30T01:28:37;99249.13;;;16.82;55.74
18527;BME280;9393;42.158;24.748;2023-04-30T01:31:42;99252.00;;;16.87;55.38
18527;BME280;9393;42.158;24.748;2023-04-30T01:34:46;99250.50;;;16.99;54.98
18527;BME280;9393;42.158;24.748;2023-04-30T01:37:57;99253.41;;;17.11;54.73
18527;BME280;9393;42.158;24.748;2023-04-30T01:41:09;99250.56;;;16.85;54.44
18527;BME280;9393;42.158;24.748;2023-04-30T01:44:28;99246.22;;;16.77;54.06
18527;BME280;9393;42.158;24.748;2023-04-30T01:47:43;99245.84;;;16.80;52.79
18527;BME280;9393;42.158;24.748;2023-04-30T01:50:51;99242.72;;;16.70;51.36
18527;BME280;9393;42.158;24.748;2023-04-30T01:53:57;99247.97;;;16.91;51.49
18527;BME280;9393;42.158;24.748;2023-04-30T01:57:03;99243.41;;;16.79;51.24
18527;BME280;9393;42.158;24.748;2023-04-30T02:00:10;99240.97;;;16.77;51.23
18527;BME280;9393;42.158;24.748;2023-04-30T02:03:16;99232.94;;;16.85;51.26
18527;BME280;9393;42.158;24.748;2023-04-30T02:06:20;99237.94;;;17.01;50.93
18527;BME280;9393;42.158;24.748;2023-04-30T02:09:23;99242.31;;;16.94;51.36
18527;BME280;9393;42.158;24.748;2023-04-30T02:12:27;99242.22;;;16.81;51.82
18527;BME280;9393;42.158;24.748;2023-04-30T02:15:33;99242.53;;;16.72;52.08
18527;BME280;9393;42.158;24.748;2023-04-30T02:18:37;99244.72;;;16.89;51.76
18527;BME280;9393;42.158;24.748;2023-04-30T02:21:40;99242.31;;;16.94;51.55
18527;BME280;9393;42.158;24.748;2023-04-30T02:24:44;99245.78;;;16.95;51.64
18527;BME280;9393;42.158;24.748;2023-04-30T02:27:48;99243.66;;;16.84;51.89
18527;BME280;9393;42.158;24.748;2023-04-30T02:30:54;99246.91;;;16.64;52.70
18527;BME280;9393;42.158;24.748;2023-04-30T02:33:58;99247.16;;;16.70;52.49
18527;BME280;9393;42.158;24.748;2023-04-30T02:37:01;99251.97;;;16.66;52.29
18527;BME280;9393;42.158;24.748;2023-04-30T02:40:06;99246.03;;;16.43;52.81
18527;BME280;9393;42.158;24.748;2023-04-30T02:43:10;99242.28;;;16.31;53.67
18527;BME280;9393;42.158;24.748;2023-04-30T02:46:15;99236.28;;;16.22;56.22
18527;BME280;9393;42.158;24.748;2023-04-30T02:49:19;99242.53;;;16.36;58.14
18527;BME280;9393;42.158;24.748;2023-04-30T02:52:24;99239.03;;;16.50;58.55
18527;BME280;9393;42.158;24.748;2023-04-30T02:55:27;99237.56;;;16.62;58.05
18527;BME280;9393;42.158;24.748;2023-04-30T02:58:32;99238.19;;;16.28;60.18
18527;BME280;9393;42.158;24.748;2023-04-30T03:01:37;99239.47;;;16.17;60.58
18527;BME280;9393;42.158;24.748;2023-04-30T03:04:40;99252.16;;;16.29;60.92
18527;BME280;9393;42.158;24.748;2023-04-30T03:07:44;99251.03;;;16.38;60.95
18527;BME280;9393;42.158;24.748;2023-04-30T03:10:48;99249.72;;;16.63;59.81
18527;BME280;9393;42.158;24.748;2023-04-30T03:13:51;99246.53;;;16.67;59.74
18527;BME280;9393;42.158;24.748;2023-04-30T03:16:57;99255.00;;;16.84;59.17
18527;BME280;9393;42.158;24.748;2023-04-30T03:20:02;99262.28;;;16.82;59.71
18527;BME280;9393;42.158;24.748;2023-04-30T03:23:06;99258.00;;;16.60;60.52
18527;BME280;9393;42.158;24.748;2023-04-30T03:26:09;99269.19;;;16.47;61.06
18527;BME280;9393;42.158;24.748;2023-04-30T03:29:13;99262.38;;;16.38;61.45
18527;BME280;9393;42.158;24.748;2023-04-30T03:32:18;99268.72;;;16.58;61.34
18527;BME280;9393;42.158;24.748;2023-04-30T03:35:22;99267.56;;;16.32;62.83
18527;BME280;9393;42.158;24.748;2023-04-30T03:38:25;99272.06;;;16.52;62.08
18527;BME280;9393;42.158;24.748;2023-04-30T03:41:29;99282.41;;;16.69;61.46
18527;BME280;9393;42.158;24.748;2023-04-30T03:44:33;99277.22;;;16.75;61.03
18527;BME280;9393;42.158;24.748;2023-04-30T03:47:38;99284.88;;;16.55;61.51
18527;BME280;9393;42.158;24.748;2023-04-30T03:50:43;99286.66;;;16.55;61.58
18527;BME280;9393;42.158;24.748;2023-04-30T03:53:47;99291.22;;;16.61;60.65
18527;BME280;9393;42.158;24.748;2023-04-30T03:56:51;99296.09;;;16.79;59.45
18527;BME280;9393;42.158;24.748;2023-04-30T03:59:55;99298.44;;;16.74;59.27
18527;BME280;9393;42.158;24.748;2023-04-30T04:03:00;99301.50;;;16.56;59.74
18527;BME280;9393;42.158;24.748;2023-04-30T04:06:04;99293.13;;;16.67;59.87
18527;BME280;9393;42.158;24.748;2023-04-30T04:09:08;99298.88;;;16.77;59.73
18527;BME280;9393;42.158;24.748;2023-04-30T04:12:15;99303.31;;;16.55;61.13
18527;BME280;9393;42.158;24.748;2023-04-30T04:15:19;99307.34;;;16.73;61.73
18527;BME280;9393;42.158;24.748;2023-04-30T04:18:24;99314.72;;;16.98;60.81
18527;BME280;9393;42.158;24.748;2023-04-30T04:21:28;99318.34;;;16.97;61.38
18527;BME280;9393;42.158;24.748;2023-04-30T04:24:32;99312.25;;;16.97;61.98
18527;BME280;9393;42.158;24.748;2023-04-30T04:27:36;99313.72;;;16.99;61.52
18527;BME280;9393;42.158;24.748;2023-04-30T04:30:40;99309.66;;;17.03;61.08
18527;BME280;9393;42.158;24.748;2023-04-30T04:33:45;99319.03;;;17.06;61.08
18527;BME280;9393;42.158;24.748;2023-04-30T04:36:49;99314.81;;;17.11;60.70
18527;BME280;9393;42.158;24.748;2023-04-30T04:39:53;99311.03;;;17.21;60.24
18527;BME280;9393;42.158;24.748;2023-04-30T04:42:57;99312.25;;;17.18;59.96
18527;BME280;9393;42.158;24.748;2023-04-30T04:46:01;99312.50;;;17.23;60.86
18527;BME280;9393;42.158;24.748;2023-04-30T04:49:06;99314.56;;;17.55;59.70
18527;BME280;9393;42.158;24.748;2023-04-30T04:52:10;99317.81;;;17.51;59.73
18527;BME280;9393;42.158;24.748;2023-04-30T04:55:14;99309.75;;;17.87;58.77
18527;BME280;9393;42.158;24.748;2023-04-30T04:58:17;99324.63;;;17.66;59.03
18527;BME280;9393;42.158;24.748;2023-04-30T05:01:21;99324.97;;;17.85;57.84
18527;BME280;9393;42.158;24.748;2023-04-30T05:04:26;99319.63;;;17.72;58.46
18527;BME280;9393;42.158;24.748;2023-04-30T05:07:31;99326.84;;;17.63;59.25
18527;BME280;9393;42.158;24.748;2023-04-30T05:10:36;99335.63;;;18.04;57.83
18527;BME280;9393;42.158;24.748;2023-04-30T05:13:41;99332.72;;;18.27;57.30
18527;BME280;9393;42.158;24.748;2023-04-30T05:16:45;99327.59;;;18.60;55.38
18527;BME280;9393;42.158;24.748;2023-04-30T05:19:52;99336.34;;;18.60;55.31
18527;BME280;9393;42.158;24.748;2023-04-30T05:22:56;99340.47;;;18.35;56.55
18527;BME280;9393;42.158;24.748;2023-04-30T05:26:00;99338.59;;;18.70;55.90
18527;BME280;9393;42.158;24.748;2023-04-30T05:29:05;99340.94;;;18.99;54.30
18527;BME280;9393;42.158;24.748;2023-04-30T05:32:08;99338.28;;;19.06;54.79
18527;BME280;9393;42.158;24.748;2023-04-30T05:35:14;99331.78;;;19.28;54.06
18527;BME280;9393;42.158;24.748;2023-04-30T05:38:18;99337.53;;;19.45;52.54
18527;BME280;9393;42.158;24.748;2023-04-30T05:41:21;99336.47;;;19.33;52.27
18527;BME280;9393;42.158;24.748;2023-04-30T05:44:25;99342.63;;;19.53;52.39
18527;BME280;9393;42.158;24.748;2023-04-30T05:47:31;99337.69;;;20.02;51.10
18527;BME280;9393;42.158;24.748;2023-04-30T05:50:36;99349.06;;;19.17;52.21
18527;BME280;9393;42.158;24.748;2023-04-30T05:53:40;99340.97;;;18.58;54.82
18527;BME280;9393;42.158;24.748;2023-04-30T05:56:44;99334.31;;;18.69;55.60
18527;BME280;9393;42.158;24.748;2023-04-30T05:59:48;99343.78;;;19.31;52.95
18527;BME280;9393;42.158;24.748;2023-04-30T06:02:52;99335.28;;;19.68;50.07
18527;BME280;9393;42.158;24.748;2023-04-30T06:05:57;99348.81;;;20.24;49.63
18527;BME280;9393;42.158;24.748;2023-04-30T06:09:01;99343.31;;;20.26;49.27
18527;BME280;9393;42.158;24.748;2023-04-30T06:12:05;99343.31;;;20.26;49.07
18527;BME280;9393;42.158;24.748;2023-04-30T06:15:09;99345.78;;;20.78;47.48
18527;BME280;9393;42.158;24.748;2023-04-30T06:18:13;99348.31;;;20.98;47.58
18527;BME280;9393;42.158;24.748;2023-04-30T06:21:18;99348.91;;;21.00;47.70
18527;BME280;9393;42.158;24.748;2023-04-30T06:24:22;99345.84;;;20.96;48.15
18527;BME280;9393;42.158;24.748;2023-04-30T06:27:28;99352.34;;;21.38;48.22
18527;BME280;9393;42.158;24.748;2023-04-30T06:30:33;99343.34;;;21.08;49.53
18527;BME280;9393;42.158;24.748;2023-04-30T06:33:37;99346.97;;;20.38;51.69
18527;BME280;9393;42.158;24.748;2023-04-30T06:36:42;99344.66;;;21.30;49.49
18527;BME280;9393;42.158;24.748;2023-04-30T06:39:46;99347.97;;;21.75;47.92
18527;BME280;9393;42.158;24.748;2023-04-30T06:42:50;99337.13;;;21.52;48.03
18527;BME280;9393;42.158;24.748;2023-04-30T06:45:55;99342.34;;;22.08;47.18
18527;BME280;9393;42.158;24.748;2023-04-30T06:48:59;99345.97;;;22.32;46.84
18527;BME280;9393;42.158;24.748;2023-04-30T06:52:04;99335.34;;;22.13;47.00
18527;BME280;9393;42.158;24.748;2023-04-30T06:55:10;99338.00;;;21.95;46.89
18527;BME280;9393;42.158;24.748;2023-04-30T06:58:14;99331.81;;;22.20;46.27
18527;BME280;9393;42.158;24.748;2023-04-30T07:01:18;99330.56;;;22.40;45.69
18527;BME280;9393;42.158;24.748;2023-04-30T07:04:22;99323.81;;;22.38;45.41
18527;BME280;9393;42.158;24.748;2023-04-30T07:07:28;99329.91;;;22.08;45.54
18527;BME280;9393;42.158;24.748;2023-04-30T07:10:32;99326.38;;;22.62;44.15
18527;BME280;9393;42.158;24.748;2023-04-30T07:13:36;99331.88;;;22.68;43.00
18527;BME280;9393;42.158;24.748;2023-04-30T07:16:40;99324.19;;;22.41;44.18
18527;BME280;9393;42.158;24.748;2023-04-30T07:19:43;99330.16;;;22.55;43.41
18527;BME280;9393;42.158;24.748;2023-04-30T07:22:48;99329.41;;;22.84;43.18
18527;BME280;9393;42.158;24.748;2023-04-30T07:25:52;99326.19;;;21.91;45.37
18527;BME280;9393;42.158;24.748;2023-04-30T07:28:56;99319.41;;;21.95;45.28
18527;BME280;9393;42.158;24.748;2023-04-30T07:32:00;99324.66;;;22.02;44.79
18527;BME280;9393;42.158;24.748;2023-04-30T07:35:04;99326.63;;;22.91;43.06
18527;BME280;9393;42.158;24.748;2023-04-30T07:38:10;99327.25;;;23.04;42.78
18527;BME280;9393;42.158;24.748;2023-04-30T07:41:14;99325.69;;;22.19;43.89
18527;BME280;9393;42.158;24.748;2023-04-30T07:44:17;99317.50;;;22.21;43.03
18527;BME280;9393;42.158;24.748;2023-04-30T07:47:22;99325.75;;;22.67;41.33
18527;BME280;9393;42.158;24.748;2023-04-30T07:50:26;99322.78;;;22.39;42.38
18527;BME280;9393;42.158;24.748;2023-04-30T07:53:36;99327.13;;;22.51;41.92
18527;BME280;9393;42.158;24.748;2023-04-30T07:56:40;99319.44;;;22.80;41.85
18527;BME280;9393;42.158;24.748;2023-04-30T07:59:44;99317.31;;;23.53;41.24
18527;BME280;9393;42.158;24.748;2023-04-30T08:02:51;99321.88;;;22.63;41.69
18527;BME280;9393;42.158;24.748;2023-04-30T08:05:55;99319.94;;;22.88;41.43
18527;BME280;9393;42.158;24.748;2023-04-30T08:09:00;99314.50;;;23.48;40.10
18527;BME280;9393;42.158;24.748;2023-04-30T08:12:05;99314.41;;;23.66;39.13
18527;BME280;9393;42.158;24.748;2023-04-30T08:15:08;99316.16;;;23.84;39.59
18527;BME280;9393;42.158;24.748;2023-04-30T08:18:12;99312.16;;;24.44;38.43
18527;BME280;9393;42.158;24.748;2023-04-30T08:21:16;99304.72;;;24.35;38.28
18527;BME280;9393;42.158;24.748;2023-04-30T08:24:21;99308.53;;;24.50;37.46
18527;BME280;9393;42.158;24.748;2023-04-30T08:27:25;99298.69;;;24.39;37.24
18527;BME280;9393;42.158;24.748;2023-04-30T08:30:29;99298.50;;;22.83;39.22
18527;BME280;9393;42.158;24.748;2023-04-30T08:33:32;99309.44;;;23.81;38.41
18527;BME280;9393;42.158;24.748;2023-04-30T08:36:36;99308.19;;;24.75;36.99
18527;BME280;9393;42.158;24.748;2023-04-30T08:39:42;99296.78;;;25.25;36.26
18527;BME280;9393;42.158;24.748;2023-04-30T08:42:52;99303.31;;;24.72;36.97
18527;BME280;9393;42.158;24.748;2023-04-30T08:45:58;99286.09;;;24.91;36.08
18527;BME280;9393;42.158;24.748;2023-04-30T08:49:02;99295.38;;;24.60;36.34
18527;BME280;9393;42.158;24.748;2023-04-30T08:52:06;99282.41;;;25.26;35.79
18527;BME280;9393;42.158;24.748;2023-04-30T08:55:12;99282.00;;;25.34;35.89
18527;BME280;9393;42.158;24.748;2023-04-30T08:58:16;99286.88;;;25.53;34.32
18527;BME280;9393;42.158;24.748;2023-04-30T09:01:20;99282.97;;;25.28;34.07
18527;BME280;9393;42.158;24.748;2023-04-30T09:04:24;99277.47;;;25.89;33.62
18527;BME280;9393;42.158;24.748;2023-04-30T09:07:32;99271.09;;;26.12;32.86
18527;BME280;9393;42.158;24.748;2023-04-30T09:10:40;99269.84;;;25.43;33.45
18527;BME280;9393;42.158;24.748;2023-04-30T09:13:43;99264.28;;;24.94;33.24
18527;BME280;9393;42.158;24.748;2023-04-30T09:16:49;99272.41;;;25.88;32.41
18527;BME280;9393;42.158;24.748;2023-04-30T09:19:54;99269.28;;;25.07;32.90
18527;BME280;9393;42.158;24.748;2023-04-30T09:23:09;99266.00;;;25.50;32.83
18527;BME280;9393;42.158;24.748;2023-04-30T09:26:20;99268.97;;;24.07;34.59
18527;BME280;9393;42.158;24.748;2023-04-30T09:29:35;99261.91;;;24.25;34.48
18527;BME280;9393;42.158;24.748;2023-04-30T09:32:53;99253.94;;;24.41;34.22
18527;BME280;9393;42.158;24.748;2023-04-30T09:36:07;99254.13;;;23.48;35.26
18527;BME280;9393;42.158;24.748;2023-04-30T09:39:11;99246.22;;;23.30;35.48
18527;BME280;9393;42.158;24.748;2023-04-30T09:42:20;99247.72;;;23.73;35.33
18527;BME280;9393;42.158;24.748;2023-04-30T09:45:24;99239.06;;;23.77;34.40
18527;BME280;9393;42.158;24.748;2023-04-30T09:48:29;99232.75;;;24.06;34.35
18527;BME280;9393;42.158;24.748;2023-04-30T09:51:32;99229.69;;;23.63;34.90
18527;BME280;9393;42.158;24.748;2023-04-30T09:54:37;99231.94;;;23.94;34.35
18527;BME280;9393;42.158;24.748;2023-04-30T09:57:42;99222.13;;;23.83;34.05
18527;BME280;9393;42.158;24.748;2023-04-30T10:00:48;99219.13;;;23.80;34.02
18527;BME280;9393;42.158;24.748;2023-04-30T10:03:53;99220.63;;;23.87;34.51
18527;BME280;9393;42.158;24.748;2023-04-30T10:06:57;99225.31;;;23.57;35.17
18527;BME280;9393;42.158;24.748;2023-04-30T10:10:06;99228.88;;;23.74;34.43
18527;BME280;9393;42.158;24.748;2023-04-30T10:13:14;99222.94;;;23.95;34.67
18527;BME280;9393;42.158;24.748;2023-04-30T10:16:27;99220.00;;;24.20;34.90
18527;BME280;9393;42.158;24.748;2023-04-30T10:19:34;99212.59;;;24.39;33.96
18527;BME280;9393;42.158;24.748;2023-04-30T10:22:39;99207.88;;;24.57;34.12
18527;BME280;9393;42.158;24.748;2023-04-30T10:25:45;99209.94;;;24.39;34.40
18527;BME280;9393;42.158;24.748;2023-04-30T10:28:52;99207.75;;;24.36;33.85
18527;BME280;9393;42.158;24.748;2023-04-30T10:31:57;99208.66;;;24.01;34.61
18527;BME280;9393;42.158;24.748;2023-04-30T10:35:09;99210.09;;;23.92;34.73
18527;BME280;9393;42.158;24.748;2023-04-30T10:38:20;99207.16;;;24.05;35.35
18527;BME280;9393;42.158;24.748;2023-04-30T10:41:26;99206.25;;;24.56;34.16
18527;BME280;9393;42.158;24.748;2023-04-30T10:44:33;99192.56;;;24.98;33.54
18527;BME280;9393;42.158;24.748;2023-04-30T10:47:41;99191.59;;;25.04;34.27
18527;BME280;9393;42.158;24.748;2023-04-30T10:50:49;99194.88;;;24.61;34.24
18527;BME280;9393;42.158;24.748;2023-04-30T10:53:54;99196.91;;;24.26;34.50
18527;BME280;9393;42.158;24.748;2023-04-30T10:57:09;99197.28;;;24.18;34.52
18527;BME280;9393;42.158;24.748;2023-04-30T11:00:24;99191.69;;;23.79;35.87
18527;BME280;9393;42.158;24.748;2023-04-30T11:03:29;99198.56;;;23.52;36.46
18527;BME280;9393;42.158;24.748;2023-04-30T11:06:53;99193.47;;;23.39;36.59
18527;BME280;9393;42.158;24.748;2023-04-30T11:09:57;99180.78;;;23.41;36.53
18527;BME280;9393;42.158;24.748;2023-04-30T11:13:04;99178.88;;;24.16;35.81
18527;BME280;9393;42.158;24.748;2023-04-30T11:16:10;99177.50;;;24.02;35.83
18527;BME280;9393;42.158;24.748;2023-04-30T11:19:14;99180.41;;;24.00;36.22
18527;BME280;9393;42.158;24.748;2023-04-30T11:22:21;99176.31;;;23.70;36.11
18527;BME280;9393;42.158;24.748;2023-04-30T11:25:25;99174.53;;;23.47;35.92
18527;BME280;9393;42.158;24.748;2023-04-30T11:28:50;99170.56;;;23.61;35.74
18527;BME280;9393;42.158;24.748;2023-04-30T11:31:59;99159.72;;;24.81;34.77
18527;BME280;9393;42.158;24.748;2023-04-30T11:35:04;99160.47;;;25.48;34.02
18527;BME280;9393;42.158;24.748;2023-04-30T11:38:09;99162.16;;;25.97;32.82
18527;BME280;9393;42.158;24.748;2023-04-30T11:41:14;99152.53;;;25.96;31.90
18527;BME280;9393;42.158;24.748;2023-04-30T11:44:22;99153.59;;;26.17;31.78
18527;BME280;9393;42.158;24.748;2023-04-30T11:47:37;99154.56;;;26.33;31.65
18527;BME280;9393;42.158;24.748;2023-04-30T11:50:41;99155.63;;;25.61;32.69
18527;BME280;9393;42.158;24.748;2023-04-30T11:53:46;99143.69;;;26.18;32.19
18527;BME280;9393;42.158;24.748;2023-04-30T11:56:51;99149.00;;;26.39;31.87
18527;BME280;9393;42.158;24.748;2023-04-30T11:59:54;99150.44;;;26.20;31.82
18527;BME280;9393;42.158;24.748;2023-04-30T12:03:00;99139.78;;;25.38;32.98
18527;BME280;9393;42.158;24.748;2023-04-30T12:06:05;99132.53;;;25.34;32.87
18527;BME280;9393;42.158;24.748;2023-04-30T12:09:09;99124.66;;;25.44;32.50
18527;BME280;9393;42.158;24.748;2023-04-30T12:12:12;99122.63;;;24.79;33.47
18527;BME280;9393;42.158;24.748;2023-04-30T12:15:18;99120.66;;;23.96;33.95
18527;BME280;9393;42.158;24.748;2023-04-30T12:18:25;99116.28;;;23.90;34.58
18527;BME280;9393;42.158;24.748;2023-04-30T12:21:29;99125.88;;;24.03;34.74
18527;BME280;9393;42.158;24.748;2023-04-30T12:24:33;99128.56;;;23.91;34.96
18527;BME280;9393;42.158;24.748;2023-04-30T12:27:37;99142.44;;;23.65;36.01
18527;BME280;9393;42.158;24.748;2023-04-30T12:30:41;99155.47;;;22.21;44.94
18527;BME280;9393;42.158;24.748;2023-04-30T12:33:56;99174.78;;;21.61;49.82
18527;BME280;9393;42.158;24.748;2023-04-30T12:37:01;99180.59;;;21.88;52.21
18527;BME280;9393;42.158;24.748;2023-04-30T12:40:07;99192.25;;;21.51;52.03
18527;BME280;9393;42.158;24.748;2023-04-30T12:43:15;99175.13;;;21.29;56.11
18527;BME280;9393;42.158;24.748;2023-04-30T12:46:25;99172.28;;;20.81;52.86
18527;BME280;9393;42.158;24.748;2023-04-30T12:49:33;99142.84;;;20.64;56.24
18527;BME280;9393;42.158;24.748;2023-04-30T12:52:38;99135.34;;;20.61;58.85
18527;BME280;9393;42.158;24.748;2023-04-30T12:55:42;99128.25;;;20.17;58.39
18527;BME280;9393;42.158;24.748;2023-04-30T12:58:46;99131.16;;;20.47;50.29
18527;BME280;9393;42.158;24.748;2023-04-30T13:01:52;99131.06;;;20.60;60.81
18527;BME280;9393;42.158;24.748;2023-04-30T13:04:58;99117.81;;;20.60;61.59
18527;BME280;9393;42.158;24.748;2023-04-30T13:08:02;99120.72;;;20.77;59.86
18527;BME280;9393;42.158;24.748;2023-04-30T13:11:07;99121.59;;;20.46;58.02
18527;BME280;9393;42.158;24.748;2023-04-30T13:14:12;99115.25;;;20.15;60.66
18527;BME280;9393;42.158;24.748;2023-04-30T13:17:16;99136.84;;;20.12;63.77
18527;BME280;9393;42.158;24.748;2023-04-30T13:20:22;99128.31;;;20.10;64.24
18527;BME280;9393;42.158;24.748;2023-04-30T13:23:26;99138.38;;;19.95;63.26
18527;BME280;9393;42.158;24.748;2023-04-30T13:26:32;99146.66;;;19.67;64.44
18527;BME280;9393;42.158;24.748;2023-04-30T13:29:36;99148.31;;;20.00;65.31
18527;BME280;9393;42.158;24.748;2023-04-30T13:32:40;99177.91;;;19.84;69.18
18527;BME280;9393;42.158;24.748;2023-04-30T13:35:46;99214.69;;;19.41;71.50
18527;BME280;9393;42.158;24.748;2023-04-30T13:38:51;99219.34;;;19.26;67.37
18527;BME280;9393;42.158;24.748;2023-04-30T13:41:54;99200.84;;;19.26;69.04
18527;BME280;9393;42.158;24.748;2023-04-30T13:44:58;99204.69;;;19.30;67.53
18527;BME280;9393;42.158;24.748;2023-04-30T13:48:02;99212.81;;;19.41;65.60
18527;BME280;9393;42.158;24.748;2023-04-30T13:51:07;99201.19;;;19.69;65.35
18527;BME280;9393;42.158;24.748;2023-04-30T13:54:11;99200.09;;;19.83;65.72
18527;BME280;9393;42.158;24.748;2023-04-30T13:57:15;99197.81;;;19.93;66.18
18527;BME280;9393;42.158;24.748;2023-04-30T14:00:19;99191.97;;;20.29;64.02
18527;BME280;9393;42.158;24.748;2023-04-30T14:03:23;99199.06;;;20.35;63.65
18527;BME280;9393;42.158;24.748;2023-04-30T14:06:29;99201.38;;;20.56;60.88
18527;BME280;9393;42.158;24.748;2023-04-30T14:09:33;99193.19;;;20.33;63.78
18527;BME280;9393;42.158;24.748;2023-04-30T14:12:38;99190.94;;;20.36;62.67
18527;BME280;9393;42.158;24.748;2023-04-30T14:15:41;99194.25;;;20.18;65.15
18527;BME280;9393;42.158;24.748;2023-04-30T14:18:45;99195.88;;;20.20;61.13
18527;BME280;9393;42.158;24.748;2023-04-30T14:21:50;99200.06;;;20.40;62.24
18527;BME280;9393;42.158;24.748;2023-04-30T14:24:54;99195.22;;;20.31;63.32
18527;BME280;9393;42.158;24.748;2023-04-30T14:27:58;99200.94;;;19.77;65.94
18527;BME280;9393;42.158;24.748;2023-04-30T14:31:02;99196.81;;;19.94;67.20
18527;BME280;9393;42.158;24.748;2023-04-30T14:34:06;99192.25;;;20.07;66.28
18527;BME280;9393;42.158;24.748;2023-04-30T14:37:12;99189.81;;;20.12;67.10
18527;BME280;9393;42.158;24.748;2023-04-30T14:40:16;99177.78;;;20.54;65.27
18527;BME280;9393;42.158;24.748;2023-04-30T14:43:21;99184.06;;;21.09;63.10
18527;BME280;9393;42.158;24.748;2023-04-30T14:46:26;99175.72;;;21.06;63.55
18527;BME280;9393;42.158;24.748;2023-04-30T14:49:30;99185.91;;;21.52;63.33
18527;BME280;9393;42.158;24.748;2023-04-30T14:52:35;99171.66;;;21.83;58.66
18527;BME280;9393;42.158;24.748;2023-04-30T14:55:39;99175.19;;;22.43;57.77
18527;BME280;9393;42.158;24.748;2023-04-30T14:58:43;99171.00;;;22.35;53.24
18527;BME280;9393;42.158;24.748;2023-04-30T15:01:47;99170.97;;;22.24;53.80
18527;BME280;9393;42.158;24.748;2023-04-30T15:04:51;99172.31;;;22.44;53.72
18527;BME280;9393;42.158;24.748;2023-04-30T15:07:56;99159.47;;;22.41;54.91
18527;BME280;9393;42.158;24.748;2023-04-30T15:11:00;99163.38;;;22.80;54.51
18527;BME280;9393;42.158;24.748;2023-04-30T15:14:04;99166.38;;;22.72;53.86
18527;BME280;9393;42.158;24.748;2023-04-30T15:17:08;99163.59;;;22.67;50.98
18527;BME280;9393;42.158;24.748;2023-04-30T15:20:12;99172.78;;;22.53;47.80
18527;BME280;9393;42.158;24.748;2023-04-30T15:23:18;99169.81;;;22.61;47.52
18527;BME280;9393;42.158;24.748;2023-04-30T15:26:22;99163.06;;;22.47;46.58
18527;BME280;9393;42.158;24.748;2023-04-30T15:29:26;99167.22;;;22.43;45.26
18527;BME280;9393;42.158;24.748;2023-04-30T15:32:30;99165.28;;;22.50;46.63
18527;BME280;9393;42.158;24.748;2023-04-30T15:35:33;99173.69;;;22.47;46.23
18527;BME280;9393;42.158;24.748;2023-04-30T15:38:39;99171.63;;;22.49;45.81
18527;BME280;9393;42.158;24.748;2023-04-30T15:41:42;99172.38;;;22.26;45.14
18527;BME280;9393;42.158;24.748;2023-04-30T15:44:47;99176.09;;;22.48;45.06
18527;BME280;9393;42.158;24.748;2023-04-30T15:47:51;99175.22;;;22.13;45.37
18527;BME280;9393;42.158;24.748;2023-04-30T15:50:55;99174.94;;;21.66;46.19
18527;BME280;9393;42.158;24.748;2023-04-30T15:54:00;99173.69;;;21.51;46.02
18527;BME280;9393;42.158;24.748;2023-04-30T15:57:04;99169.69;;;21.42;46.34
18527;BME280;9393;42.158;24.748;2023-04-30T16:00:09;99165.25;;;21.36;46.37
18527;BME280;9393;42.158;24.748;2023-04-30T16:03:15;99166.72;;;21.32;46.50
18527;BME280;9393;42.158;24.748;2023-04-30T16:06:19;99171.16;;;21.56;45.91
18527;BME280;9393;42.158;24.748;2023-04-30T16:09:25;99164.75;;;21.82;45.85
18527;BME280;9393;42.158;24.748;2023-04-30T16:12:29;99167.13;;;21.90;45.30
18527;BME280;9393;42.158;24.748;2023-04-30T16:15:33;99163.22;;;21.92;44.87
18527;BME280;9393;42.158;24.748;2023-04-30T16:18:36;99173.38;;;21.77;45.34
18527;BME280;9393;42.158;24.748;2023-04-30T16:21:40;99173.38;;;21.59;46.10